Time;durP1;ratioP1;P1;durP2;ratioP2;P2;SDS_P1;SDS_P2;PMS_P1;PMS_P2;Temp;Humidity;BMP_temperature;BMP_pressure;BME280_temperature;BME280_humidity;BME280_pressure;Samples;Min_cycle;Max_cycle;Signal;HPM_P1;HPM_P2
2023/09/08 00:01:58;;;;;;;416.53;111.70;;;;;;;;;;4989231;28;20060;-53
2023/09/08 00:04:23;;;;;;;536.70;119.50;;;;;;;;;;4993772;28;20292;-53
2023/09/08 00:06:49;;;;;;;463.38;117.68;;;;;;;;;;4992381;28;20845;-55
2023/09/08 00:09:14;;;;;;;556.42;110.68;;;;;;;;;;4990663;28;20041;-52
2023/09/08 00:11:39;;;;;;;452.60;111.40;;;;;;;;;;4990343;28;20038;-52
2023/09/08 00:14:05;;;;;;;443.87;110.53;;;;;;;;;;4991837;28;20053;-52
2023/09/08 00:16:30;;;;;;;460.75;113.20;;;;;;;;;;4992776;28;20331;-52
2023/09/08 00:18:56;;;;;;;470.00;113.28;;;;;;;;;;4993333;28;20030;-52
2023/09/08 00:21:22;;;;;;;611.03;124.07;;;;;;;;;;4992424;28;20365;-54
2023/09/08 00:23:47;;;;;;;421.80;107.73;;;;;;;;;;4991165;28;20353;-54
2023/09/08 00:26:12;;;;;;;509.42;108.38;;;;;;;;;;4987989;28;20373;-55
2023/09/08 00:28:37;;;;;;;382.47;99.20;;;;;;;;;;4989530;28;20018;-54
2023/09/08 00:31:04;;;;;;;433.17;102.73;;;;;;;;;;4995127;28;20266;-54
2023/09/08 00:33:29;;;;;;;364.23;96.38;;;;;;;;;;4991397;28;20018;-53
2023/09/08 00:35:57;;;;;;;425.03;105.47;;;;;;;;;;4988344;28;20056;-52
2023/09/08 00:38:22;;;;;;;506.90;108.00;;;;;;;;;;4990260;28;20814;-53
2023/09/08 00:40:47;;;;;;;427.13;98.25;;;;;;;;;;4993620;28;20037;-52
2023/09/08 00:43:12;;;;;;;455.03;102.97;;;;;;;;;;4988424;28;20244;-54
2023/09/08 00:45:40;;;;;;;427.83;96.73;;;;;;;;;;4990634;28;20408;-54
2023/09/08 00:48:05;;;;;;;416.90;101.78;;;;;;;;;;4991641;28;20861;-53
2023/09/08 00:50:31;;;;;;;446.98;106.43;;;;;;;;;;4989469;28;20065;-53
2023/09/08 00:52:56;;;;;;;382.00;104.53;;;;;;;;;;4994552;28;20015;-56
2023/09/08 00:55:21;;;;;;;570.33;116.30;;;;;;;;;;4987295;28;20272;-52
2023/09/08 00:57:46;;;;;;;459.57;111.47;;;;;;;;;;4991252;28;20147;-52
2023/09/08 01:00:12;;;;;;;420.63;112.00;;;;;;;;;;4988220;28;20269;-52
2023/09/08 01:02:37;;;;;;;421.00;112.00;;;;;;;;;;4989637;28;20292;-53
2023/09/08 01:05:03;;;;;;;435.27;112.83;;;;;;;;;;4994328;28;20037;-55
2023/09/08 01:07:29;;;;;;;620.13;124.53;;;;;;;;;;4987641;28;20292;-54
2023/09/08 01:09:55;;;;;;;451.50;117.28;;;;;;;;;;4992216;28;20511;-54
2023/09/08 01:12:20;;;;;;;612.17;129.45;;;;;;;;;;4989358;28;20251;-53
2023/09/08 01:14:45;;;;;;;463.63;116.30;;;;;;;;;;4993305;28;20394;-53
2023/09/08 01:17:12;;;;;;;412.38;121.32;;;;;;;;;;4990636;28;20046;-53
2023/09/08 01:19:37;;;;;;;484.17;126.18;;;;;;;;;;4991758;28;20113;-55
2023/09/08 01:22:21;;;;;;;446.17;123.93;;;;;;;;;;4991299;28;20239;-53
2023/09/08 01:25:05;;;;;;;471.33;128.85;;;;;;;;;;4993352;28;20109;-53
2023/09/08 01:27:33;;;;;;;609.45;136.80;;;;;;;;;;4990587;28;20034;-55
2023/09/08 01:29:59;;;;;;;525.67;133.07;;;;;;;;;;4989927;28;20076;-53
2023/09/08 01:32:25;;;;;;;556.45;115.82;;;;;;;;;;4985797;28;20603;-53
2023/09/08 01:34:51;;;;;;;429.58;111.68;;;;;;;;;;4991327;28;20480;-53
2023/09/08 01:37:16;;;;;;;502.67;118.30;;;;;;;;;;4988734;28;20057;-57
2023/09/08 01:39:42;;;;;;;440.73;113.55;;;;;;;;;;4988483;28;20122;-57
2023/09/08 01:42:07;;;;;;;410.90;115.13;;;;;;;;;;4989276;28;20494;-56
2023/09/08 01:44:32;;;;;;;419.43;114.03;;;;;;;;;;4988261;28;22081;-55
2023/09/08 01:46:58;;;;;;;419.77;114.18;;;;;;;;;;4989233;28;20284;-57
2023/09/08 01:49:23;;;;;;;514.10;119.75;;;;;;;;;;4986807;28;20014;-55
2023/09/08 01:51:49;;;;;;;424.15;117.15;;;;;;;;;;4989005;28;20812;-55
2023/09/08 01:54:14;;;;;;;479.25;118.90;;;;;;;;;;4989410;28;20021;-54
2023/09/08 01:56:39;;;;;;;398.23;117.30;;;;;;;;;;4991839;28;20053;-55
2023/09/08 01:59:04;;;;;;;459.92;119.80;;;;;;;;;;4989671;28;20296;-55
2023/09/08 02:01:30;;;;;;;637.85;132.05;;;;;;;;;;4989444;28;20038;-55
2023/09/08 02:03:55;;;;;;;450.73;121.47;;;;;;;;;;4988339;28;20041;-56
2023/09/08 02:06:20;;;;;;;587.80;126.87;;;;;;;;;;4988590;28;20057;-55
2023/09/08 02:08:45;;;;;;;495.93;124.57;;;;;;;;;;4989344;28;20344;-56
2023/09/08 02:11:11;;;;;;;422.13;120.03;;;;;;;;;;4987596;28;20305;-54
2023/09/08 02:13:36;;;;;;;450.92;122.53;;;;;;;;;;4989364;28;20080;-55
2023/09/08 02:16:01;;;;;;;454.52;123.40;;;;;;;;;;4989429;28;20164;-57
2023/09/08 02:18:28;;;;;;;585.50;130.50;;;;;;;;;;4987822;28;20025;-56
2023/09/08 02:20:53;;;;;;;430.45;122.70;;;;;;;;;;4989080;28;20368;-55
2023/09/08 02:23:18;;;;;;;521.13;126.80;;;;;;;;;;4987401;28;20427;-55
2023/09/08 02:25:43;;;;;;;452.93;124.83;;;;;;;;;;4990009;28;20674;-55
2023/09/08 02:28:08;;;;;;;451.67;125.38;;;;;;;;;;4986702;28;20288;-56
2023/09/08 02:30:34;;;;;;;595.30;133.37;;;;;;;;;;5001586;28;20029;-57
2023/09/08 02:32:59;;;;;;;415.33;123.10;;;;;;;;;;4991794;28;20256;-57
2023/09/08 02:35:24;;;;;;;529.10;130.37;;;;;;;;;;4990526;28;20035;-56
2023/09/08 02:37:49;;;;;;;475.83;127.70;;;;;;;;;;4989723;28;20276;-56
2023/09/08 02:40:15;;;;;;;477.33;128.17;;;;;;;;;;4990623;28;20042;-58
2023/09/08 02:42:40;;;;;;;433.90;127.27;;;;;;;;;;4991291;28;20253;-55
2023/09/08 02:45:05;;;;;;;449.83;127.10;;;;;;;;;;4991065;28;20322;-54
2023/09/08 02:47:31;;;;;;;578.13;124.68;;;;;;;;;;4986718;28;20296;-55
2023/09/08 02:49:57;;;;;;;466.20;110.00;;;;;;;;;;4988871;28;20053;-55
2023/09/08 02:52:22;;;;;;;515.05;116.22;;;;;;;;;;4987257;28;21049;-54
2023/09/08 02:54:47;;;;;;;456.20;113.33;;;;;;;;;;4993034;28;20664;-56
2023/09/08 02:57:12;;;;;;;414.93;110.83;;;;;;;;;;4991097;28;20285;-57
2023/09/08 02:59:37;;;;;;;450.53;113.30;;;;;;;;;;4985531;28;20284;-54
2023/09/08 03:02:03;;;;;;;436.40;115.33;;;;;;;;;;4990199;28;20269;-55
2023/09/08 03:04:28;;;;;;;504.50;116.53;;;;;;;;;;4990714;28;20277;-55
2023/09/08 03:06:53;;;;;;;425.33;114.73;;;;;;;;;;4988920;28;20038;-54
2023/09/08 03:09:19;;;;;;;447.20;116.30;;;;;;;;;;4989232;28;20366;-55
2023/09/08 03:11:44;;;;;;;452.27;115.83;;;;;;;;;;4989065;28;20345;-57
2023/09/08 03:14:09;;;;;;;405.83;114.40;;;;;;;;;;4988542;28;20680;-57
2023/09/08 03:16:34;;;;;;;574.03;123.80;;;;;;;;;;4990820;28;20376;-55
2023/09/08 03:18:59;;;;;;;393.20;113.60;;;;;;;;;;4994013;28;20323;-54
2023/09/08 03:21:25;;;;;;;508.33;120.32;;;;;;;;;;4998625;28;20690;-54
2023/09/08 03:23:50;;;;;;;399.20;115.82;;;;;;;;;;4994620;28;20074;-55
2023/09/08 03:26:15;;;;;;;478.20;119.97;;;;;;;;;;4996628;28;20444;-57
2023/09/08 03:28:41;;;;;;;445.08;118.80;;;;;;;;;;4994829;28;20271;-55
2023/09/08 03:31:07;;;;;;;399.75;95.38;;;;;;;;;;4991344;28;20025;-56
2023/09/08 03:33:32;;;;;;;521.08;98.95;;;;;;;;;;4992425;28;20075;-56
2023/09/08 03:35:57;;;;;;;408.92;103.60;;;;;;;;;;4995867;28;20029;-54
2023/09/08 03:38:23;;;;;;;398.27;93.70;;;;;;;;;;4994118;28;20584;-55
2023/09/08 03:40:48;;;;;;;399.83;89.13;;;;;;;;;;4993434;28;20331;-55
2023/09/08 03:43:13;;;;;;;418.20;98.63;;;;;;;;;;4991600;28;20106;-55
2023/09/08 03:45:39;;;;;;;427.17;97.60;;;;;;;;;;4988010;28;20531;-55
2023/09/08 03:48:04;;;;;;;394.70;98.60;;;;;;;;;;4989042;28;20014;-55
2023/09/08 03:50:30;;;;;;;519.42;103.28;;;;;;;;;;4989928;28;20022;-56
2023/09/08 03:52:55;;;;;;;369.95;93.05;;;;;;;;;;4993113;28;20053;-55
2023/09/08 03:55:20;;;;;;;368.50;97.30;;;;;;;;;;4991027;28;20026;-55
2023/09/08 03:57:46;;;;;;;450.42;103.82;;;;;;;;;;4993540;28;20032;-55
2023/09/08 04:00:11;;;;;;;413.15;103.68;;;;;;;;;;4989500;28;20048;-55
2023/09/08 04:02:37;;;;;;;547.40;112.63;;;;;;;;;;4991015;28;20025;-56
2023/09/08 04:05:03;;;;;;;464.38;107.20;;;;;;;;;;4994154;28;20034;-55
2023/09/08 04:07:28;;;;;;;476.70;108.53;;;;;;;;;;4989629;28;20046;-54
2023/09/08 04:09:53;;;;;;;441.30;107.57;;;;;;;;;;4993094;28;20244;-54
2023/09/08 04:12:18;;;;;;;469.80;110.20;;;;;;;;;;4992632;28;20123;-58
2023/09/08 04:14:44;;;;;;;425.30;110.53;;;;;;;;;;4992125;28;20018;-56
2023/09/08 04:17:09;;;;;;;413.48;110.80;;;;;;;;;;4990969;28;20272;-57
2023/09/08 04:19:34;;;;;;;571.17;118.32;;;;;;;;;;4992498;28;20017;-57
2023/09/08 04:21:59;;;;;;;423.30;112.93;;;;;;;;;;4990748;28;20488;-55
2023/09/08 04:24:25;;;;;;;453.27;108.07;;;;;;;;;;4992048;28;20026;-56
2023/09/08 04:26:50;;;;;;;476.20;110.30;;;;;;;;;;4992860;28;20294;-55
2023/09/08 04:29:15;;;;;;;367.10;105.23;;;;;;;;;;4992949;28;20818;-54
2023/09/08 04:31:40;;;;;;;539.90;113.20;;;;;;;;;;4990378;28;20865;-56
2023/09/08 04:34:06;;;;;;;457.33;108.85;;;;;;;;;;4992531;28;20023;-57
2023/09/08 04:36:31;;;;;;;483.17;112.07;;;;;;;;;;4991268;28;20305;-56
2023/09/08 04:38:56;;;;;;;388.95;108.32;;;;;;;;;;4991627;28;20348;-55
2023/09/08 04:41:21;;;;;;;451.55;112.30;;;;;;;;;;4992185;28;20053;-57
2023/09/08 04:43:47;;;;;;;434.90;115.45;;;;;;;;;;4988919;28;20322;-56
2023/09/08 04:46:12;;;;;;;429.23;116.90;;;;;;;;;;4988981;28;20038;-55
2023/09/08 04:48:37;;;;;;;537.00;122.10;;;;;;;;;;4992279;28;20052;-57
2023/09/08 04:51:02;;;;;;;446.52;118.30;;;;;;;;;;4989309;28;20137;-54
2023/09/08 04:53:28;;;;;;;508.53;122.53;;;;;;;;;;4991444;28;20041;-54
2023/09/08 04:55:53;;;;;;;439.60;118.80;;;;;;;;;;4989855;28;20269;-56
2023/09/08 04:58:18;;;;;;;452.70;120.00;;;;;;;;;;4992806;28;20762;-54
2023/09/08 05:00:43;;;;;;;414.27;118.72;;;;;;;;;;4989335;28;21132;-55
2023/09/08 05:03:09;;;;;;;438.37;119.50;;;;;;;;;;4990927;28;20564;-55
2023/09/08 05:05:34;;;;;;;579.57;108.27;;;;;;;;;;4986164;28;20642;-55
2023/09/08 05:07:59;;;;;;;378.35;100.03;;;;;;;;;;4991704;28;20811;-56
2023/09/08 05:10:25;;;;;;;434.90;107.47;;;;;;;;;;4993433;28;20859;-54
2023/09/08 05:12:50;;;;;;;417.08;108.25;;;;;;;;;;4994884;28;20258;-56
2023/09/08 05:15:16;;;;;;;387.40;107.93;;;;;;;;;;4991762;28;20203;-55
2023/09/08 05:17:42;;;;;;;557.28;116.47;;;;;;;;;;4991196;28;20491;-56
2023/09/08 05:20:07;;;;;;;445.10;113.75;;;;;;;;;;4989878;28;20288;-54
2023/09/08 05:22:33;;;;;;;584.28;120.43;;;;;;;;;;4989160;28;20597;-55
2023/09/08 05:24:58;;;;;;;425.97;112.67;;;;;;;;;;4995332;28;20508;-54
2023/09/08 05:27:23;;;;;;;437.33;111.18;;;;;;;;;;4985834;28;20667;-57
2023/09/08 05:29:48;;;;;;;449.53;111.10;;;;;;;;;;4991645;28;20025;-56
2023/09/08 05:32:13;;;;;;;452.67;108.50;;;;;;;;;;4989372;28;20278;-57
2023/09/08 05:34:39;;;;;;;578.67;114.07;;;;;;;;;;4989280;28;20021;-55
2023/09/08 05:37:04;;;;;;;401.88;103.75;;;;;;;;;;4989928;28;20294;-52
2023/09/08 05:39:29;;;;;;;436.83;104.40;;;;;;;;;;4990514;28;20033;-52
2023/09/08 05:41:55;;;;;;;434.75;102.07;;;;;;;;;;4990734;28;20518;-52
2023/09/08 05:44:20;;;;;;;409.47;99.83;;;;;;;;;;4993605;28;20279;-56
2023/09/08 05:46:45;;;;;;;567.15;104.20;;;;;;;;;;4988592;28;20591;-54
2023/09/08 05:49:10;;;;;;;414.65;98.50;;;;;;;;;;4987629;28;20038;-54
2023/09/08 05:51:36;;;;;;;547.63;102.93;;;;;;;;;;4989461;28;20026;-53
2023/09/08 05:54:01;;;;;;;403.58;96.95;;;;;;;;;;4991088;28;20029;-56
2023/09/08 05:56:29;;;;;;;393.97;95.73;;;;;;;;;;4988149;28;20033;-58
2023/09/08 05:58:55;;;;;;;382.52;94.78;;;;;;;;;;4988757;28;20319;-53
2023/09/08 06:01:20;;;;;;;405.30;95.18;;;;;;;;;;4991349;28;20549;-56
2023/09/08 06:03:45;;;;;;;545.65;103.78;;;;;;;;;;4988770;28;20044;-55
2023/09/08 06:06:11;;;;;;;393.73;95.90;;;;;;;;;;4992078;28;20491;-52
2023/09/08 06:08:36;;;;;;;565.05;104.45;;;;;;;;;;4988447;28;20685;-54
2023/09/08 06:11:02;;;;;;;435.45;97.25;;;;;;;;;;4988673;28;20050;-54
2023/09/08 06:13:27;;;;;;;394.13;95.47;;;;;;;;;;4990640;28;20483;-53
2023/09/08 06:15:53;;;;;;;418.90;96.68;;;;;;;;;;4988063;28;20289;-52
2023/09/08 06:18:18;;;;;;;453.70;110.17;;;;;;;;;;4988555;28;20030;-53
2023/09/08 06:20:44;;;;;;;530.33;105.10;;;;;;;;;;4990134;28;20700;-54
2023/09/08 06:23:09;;;;;;;383.08;96.22;;;;;;;;;;4989027;28;20368;-54
2023/09/08 06:25:35;;;;;;;502.15;102.03;;;;;;;;;;4991985;28;20386;-55
2023/09/08 06:28:00;;;;;;;356.77;98.18;;;;;;;;;;4993383;28;20465;-53
2023/09/08 06:30:26;;;;;;;382.60;94.27;;;;;;;;;;4996636;28;20654;-56
2023/09/08 06:32:51;;;;;;;422.63;94.97;;;;;;;;;;4990125;28;20825;-57
2023/09/08 06:35:16;;;;;;;391.10;103.63;;;;;;;;;;4990294;28;20163;-55
2023/09/08 06:37:41;;;;;;;470.30;95.97;;;;;;;;;;4989559;28;20026;-53
2023/09/08 06:40:07;;;;;;;431.33;108.43;;;;;;;;;;4991674;28;20260;-54
2023/09/08 06:42:32;;;;;;;408.98;92.35;;;;;;;;;;4988814;28;20049;-53
2023/09/08 06:44:58;;;;;;;447.07;141.73;;;;;;;;;;4995867;28;20018;-55
2023/09/08 06:47:24;;;;;;;374.52;97.75;;;;;;;;;;4994636;28;20285;-55
2023/09/08 06:49:49;;;;;;;568.63;345.53;;;;;;;;;;4990613;28;20124;-54
2023/09/08 06:52:14;;;;;;;503.80;229.93;;;;;;;;;;4997690;28;20034;-54
2023/09/08 06:54:39;;;;;;;561.33;206.73;;;;;;;;;;4994723;28;20721;-56
2023/09/08 06:57:04;;;;;;;465.67;214.60;;;;;;;;;;4994701;28;20277;-56
2023/09/08 06:59:30;;;;;;;542.80;273.47;;;;;;;;;;5000895;28;20028;-54
2023/09/08 07:01:55;;;;;;;395.47;148.60;;;;;;;;;;4990250;28;20034;-53
2023/09/08 07:04:20;;;;;;;350.90;134.47;;;;;;;;;;4993600;28;20315;-54
2023/09/08 07:06:46;;;;;;;584.13;390.73;;;;;;;;;;4994685;28;20034;-55
2023/09/08 07:09:11;;;;;;;494.70;241.02;;;;;;;;;;4994476;28;20477;-54
2023/09/08 07:11:37;;;;;;;533.35;266.88;;;;;;;;;;4997782;28;20044;-57
2023/09/08 07:14:02;;;;;;;366.37;229.30;;;;;;;;;;5004499;28;20487;-56
2023/09/08 07:16:27;;;;;;;408.95;242.02;;;;;;;;;;5001968;28;20624;-55
2023/09/08 07:18:53;;;;;;;418.75;278.88;;;;;;;;;;4997994;28;20105;-56
2023/09/08 07:21:18;;;;;;;387.00;245.93;;;;;;;;;;4997064;28;20042;-55
2023/09/08 07:23:43;;;;;;;476.33;211.77;;;;;;;;;;4997113;28;20700;-54
2023/09/08 07:26:09;;;;;;;356.05;262.10;;;;;;;;;;4998722;28;20297;-55
2023/09/08 07:28:34;;;;;;;474.30;340.15;;;;;;;;;;4996552;28;20273;-57
2023/09/08 07:31:03;;;;;;;407.17;218.67;;;;;;;;;;4999623;28;20610;-54
2023/09/08 07:33:29;;;;;;;398.33;283.95;;;;;;;;;;4995356;28;20268;-58
2023/09/08 07:35:54;;;;;;;497.50;262.97;;;;;;;;;;4995590;28;20022;-56
2023/09/08 07:38:19;;;;;;;508.53;359.00;;;;;;;;;;5000244;28;20036;-54
2023/09/08 07:40:44;;;;;;;622.17;391.53;;;;;;;;;;4993807;28;20631;-55
2023/09/08 07:43:10;;;;;;;417.00;262.03;;;;;;;;;;4995670;28;20084;-54
2023/09/08 07:45:35;;;;;;;472.97;284.43;;;;;;;;;;4996269;28;20033;-55
2023/09/08 07:48:00;;;;;;;403.73;338.43;;;;;;;;;;4998796;28;20657;-55
2023/09/08 07:50:27;;;;;;;408.93;277.63;;;;;;;;;;4994989;28;20042;-57
2023/09/08 07:52:53;;;;;;;750.35;426.10;;;;;;;;;;4993747;28;20844;-56
2023/09/08 07:55:19;;;;;;;380.10;299.00;;;;;;;;;;4995714;28;20036;-54
2023/09/08 07:57:45;;;;;;;607.22;349.67;;;;;;;;;;4997377;28;20026;-54
2023/09/08 08:00:11;;;;;;;407.98;226.23;;;;;;;;;;4995688;28;20053;-56
2023/09/08 08:02:38;;;;;;;422.10;103.30;;;;;;;;;;4994228;28;20133;-54
2023/09/08 08:05:03;;;;;;;345.02;158.07;;;;;;;;;;4999214;28;20341;-55
2023/09/08 08:07:30;;;;;;;507.65;396.33;;;;;;;;;;4997717;28;20034;-56
2023/09/08 08:09:55;;;;;;;439.52;324.75;;;;;;;;;;4993572;28;20022;-55
2023/09/08 08:12:20;;;;;;;398.98;310.42;;;;;;;;;;5001227;28;20099;-56
2023/09/08 08:14:45;;;;;;;488.67;256.90;;;;;;;;;;4996591;28;20026;-55
2023/09/08 08:17:11;;;;;;;472.50;368.73;;;;;;;;;;4997967;28;20861;-56
2023/09/08 08:19:36;;;;;;;419.50;293.73;;;;;;;;;;5005160;28;20387;-53
2023/09/08 08:22:01;;;;;;;495.87;408.43;;;;;;;;;;4995793;28;20040;-56
2023/09/08 08:24:27;;;;;;;380.00;236.33;;;;;;;;;;4997137;28;20272;-55
2023/09/08 08:26:52;;;;;;;420.37;257.30;;;;;;;;;;4994637;28;20604;-54
2023/09/08 08:29:17;;;;;;;379.98;282.05;;;;;;;;;;4995605;28;20271;-55
2023/09/08 08:31:42;;;;;;;605.77;270.27;;;;;;;;;;4994834;28;20408;-54
2023/09/08 08:34:09;;;;;;;495.87;353.73;;;;;;;;;;4997650;28;20010;-54
2023/09/08 08:36:34;;;;;;;372.85;256.70;;;;;;;;;;4995124;28;20113;-55
2023/09/08 08:38:59;;;;;;;370.03;266.07;;;;;;;;;;4998422;28;20102;-55
2023/09/08 08:41:24;;;;;;;472.83;341.30;;;;;;;;;;4994263;28;20438;-54
2023/09/08 08:43:51;;;;;;;498.13;281.07;;;;;;;;;;4992985;28;20037;-57
2023/09/08 08:46:17;;;;;;;391.88;286.27;;;;;;;;;;4998865;28;20120;-56
2023/09/08 08:48:42;;;;;;;527.15;294.58;;;;;;;;;;4997127;28;20029;-54
2023/09/08 08:51:08;;;;;;;414.70;310.25;;;;;;;;;;4990856;28;20145;-55
2023/09/08 08:53:33;;;;;;;381.88;327.38;;;;;;;;;;4993966;28;20029;-54
2023/09/08 08:55:59;;;;;;;371.70;263.05;;;;;;;;;;4994709;28;20050;-54
2023/09/08 08:58:26;;;;;;;460.08;356.88;;;;;;;;;;4993960;28;20450;-57
2023/09/08 09:00:54;;;;;;;506.58;301.58;;;;;;;;;;4992143;28;20648;-54
2023/09/08 09:03:20;;;;;;;442.80;342.55;;;;;;;;;;4994053;28;20559;-55
2023/09/08 09:05:45;;;;;;;479.13;213.55;;;;;;;;;;4994791;28;20041;-54
2023/09/08 09:08:11;;;;;;;277.88;142.48;;;;;;;;;;4998240;28;20030;-56
2023/09/08 09:10:37;;;;;;;460.77;334.23;;;;;;;;;;4994999;28;20030;-55
2023/09/08 09:13:02;;;;;;;391.87;287.40;;;;;;;;;;4996984;28;20353;-53
2023/09/08 09:15:28;;;;;;;292.38;172.00;;;;;;;;;;4995968;28;20129;-56
2023/09/08 09:18:06;;;;;;;479.20;239.70;;;;;;;;;;4993055;28;20044;-55
2023/09/08 09:20:31;;;;;;;365.63;255.30;;;;;;;;;;4990800;28;20097;-56
2023/09/08 09:22:57;;;;;;;564.22;319.15;;;;;;;;;;4998991;28;20454;-56
2023/09/08 09:25:26;;;;;;;376.77;302.87;;;;;;;;;;4992159;28;20036;-57
2023/09/08 09:27:53;;;;;;;522.95;287.17;;;;;;;;;;4994856;28;20660;-55
2023/09/08 09:30:18;;;;;;;398.27;252.88;;;;;;;;;;4996086;28;20156;-53
2023/09/08 09:32:44;;;;;;;520.10;372.80;;;;;;;;;;4995247;28;20447;-57
2023/09/08 09:35:09;;;;;;;380.33;302.95;;;;;;;;;;4997228;28;20436;-54
2023/09/08 09:37:35;;;;;;;414.83;336.93;;;;;;;;;;4996483;28;20100;-55
2023/09/08 09:40:01;;;;;;;420.25;333.98;;;;;;;;;;4998714;28;20037;-56
2023/09/08 09:42:27;;;;;;;413.77;323.83;;;;;;;;;;5001006;28;20034;-56
2023/09/08 09:44:53;;;;;;;538.33;320.83;;;;;;;;;;4994120;28;20026;-53
2023/09/08 09:47:21;;;;;;;468.37;315.97;;;;;;;;;;4994804;28;20045;-56
2023/09/08 09:49:47;;;;;;;482.52;186.18;;;;;;;;;;4993053;28;20248;-53
2023/09/08 09:52:13;;;;;;;429.58;363.95;;;;;;;;;;5012016;28;20018;-56
2023/09/08 09:54:42;;;;;;;424.23;334.05;;;;;;;;;;4993091;28;20041;-56
2023/09/08 09:57:09;;;;;;;336.92;226.50;;;;;;;;;;4998042;28;20064;-56
2023/09/08 09:59:34;;;;;;;426.88;324.98;;;;;;;;;;4994783;28;20029;-54
2023/09/08 10:01:59;;;;;;;582.80;305.67;;;;;;;;;;4989509;28;20026;-56
2023/09/08 10:04:25;;;;;;;328.75;234.27;;;;;;;;;;4996206;28;20268;-54
2023/09/08 10:06:52;;;;;;;557.17;280.88;;;;;;;;;;4994224;28;20153;-55
2023/09/08 10:09:19;;;;;;;405.65;287.45;;;;;;;;;;4995550;28;20477;-54
2023/09/08 10:11:44;;;;;;;570.15;356.92;;;;;;;;;;4991893;28;20485;-54
2023/09/08 10:14:11;;;;;;;497.57;352.07;;;;;;;;;;4991909;28;20028;-54
2023/09/08 10:16:38;;;;;;;415.73;311.00;;;;;;;;;;4994152;28;20708;-54
2023/09/08 10:19:05;;;;;;;390.27;314.90;;;;;;;;;;4992411;28;20018;-53
2023/09/08 10:21:32;;;;;;;439.02;306.55;;;;;;;;;;4994089;28;20148;-56
2023/09/08 10:24:09;;;;;;;533.15;293.77;;;;;;;;;;4991741;28;20060;-56
2023/09/08 10:26:34;;;;;;;404.70;297.63;;;;;;;;;;4992480;28;20038;-56
2023/09/08 10:29:00;;;;;;;468.25;277.90;;;;;;;;;;4992586;28;20014;-54
2023/09/08 10:31:26;;;;;;;390.17;295.55;;;;;;;;;;4994721;28;20026;-57
2023/09/08 10:33:52;;;;;;;650.42;404.25;;;;;;;;;;4994095;28;20463;-54
2023/09/08 10:36:17;;;;;;;405.85;312.27;;;;;;;;;;4992530;28;20034;-54
2023/09/08 10:38:47;;;;;;;323.83;231.90;;;;;;;;;;4996285;28;20306;-57
2023/09/08 10:41:15;;;;;;;360.50;254.10;;;;;;;;;;4994491;28;20534;-56
2023/09/08 10:43:42;;;;;;;407.85;277.73;;;;;;;;;;4994094;28;20022;-54
2023/09/08 10:46:20;;;;;;;349.70;250.77;;;;;;;;;;4994614;28;20026;-54
2023/09/08 10:48:45;;;;;;;414.08;298.95;;;;;;;;;;4993267;28;20022;-55
2023/09/08 10:51:14;;;;;;;401.03;279.33;;;;;;;;;;4995182;28;20452;-57
2023/09/08 10:53:40;;;;;;;433.73;311.65;;;;;;;;;;4993353;28;20009;-55
2023/09/08 10:56:05;;;;;;;390.85;265.48;;;;;;;;;;4993606;28;20037;-56
2023/09/08 10:58:38;;;;;;;338.00;252.57;;;;;;;;;;4996030;28;20224;-56
2023/09/08 11:01:04;;;;;;;541.63;298.95;;;;;;;;;;4989578;28;20851;-53
2023/09/08 11:03:39;;;;;;;447.88;271.77;;;;;;;;;;4992145;28;20484;-57
2023/09/08 11:06:04;;;;;;;514.00;342.10;;;;;;;;;;4992184;28;20400;-55
2023/09/08 11:08:30;;;;;;;411.77;289.60;;;;;;;;;;4995056;28;20025;-55
2023/09/08 11:10:56;;;;;;;467.25;209.60;;;;;;;;;;4991877;28;20345;-56
2023/09/08 11:13:21;;;;;;;420.58;297.13;;;;;;;;;;4991551;28;20022;-55
2023/09/08 11:15:46;;;;;;;389.92;272.35;;;;;;;;;;4990574;28;20069;-53
2023/09/08 11:18:11;;;;;;;438.93;314.13;;;;;;;;;;4994879;28;20455;-55
2023/09/08 11:20:37;;;;;;;397.30;302.37;;;;;;;;;;4995719;28;20212;-56
2023/09/08 11:23:04;;;;;;;539.53;275.53;;;;;;;;;;4994878;28;20278;-54
2023/09/08 11:25:30;;;;;;;449.27;329.77;;;;;;;;;;4994633;28;20140;-55
2023/09/08 11:27:56;;;;;;;496.00;298.60;;;;;;;;;;4994521;28;20181;-56
2023/09/08 11:30:22;;;;;;;418.65;283.70;;;;;;;;;;4994093;28;20088;-54
2023/09/08 11:32:47;;;;;;;540.90;462.77;;;;;;;;;;4996475;28;20014;-56
2023/09/08 11:35:13;;;;;;;373.03;266.23;;;;;;;;;;4994879;28;20410;-55
2023/09/08 11:37:41;;;;;;;442.02;287.00;;;;;;;;;;4995106;28;20372;-53
2023/09/08 11:40:11;;;;;;;425.58;289.88;;;;;;;;;;4999059;28;20018;-54
2023/09/08 11:42:37;;;;;;;392.80;278.13;;;;;;;;;;4996392;28;20076;-53
2023/09/08 11:45:04;;;;;;;521.03;335.67;;;;;;;;;;4999921;28;20319;-54
2023/09/08 11:47:29;;;;;;;434.63;272.67;;;;;;;;;;4997836;28;20038;-54
2023/09/08 11:49:54;;;;;;;584.47;331.90;;;;;;;;;;4995404;28;20084;-55
2023/09/08 11:52:22;;;;;;;369.53;239.87;;;;;;;;;;4998508;28;20034;-54
2023/09/08 11:54:47;;;;;;;398.52;250.23;;;;;;;;;;4996502;28;20111;-53
2023/09/08 11:57:13;;;;;;;503.88;337.05;;;;;;;;;;4999620;28;20042;-53
2023/09/08 11:59:38;;;;;;;511.83;367.50;;;;;;;;;;4998155;28;20411;-55
2023/09/08 12:02:04;;;;;;;574.50;309.67;;;;;;;;;;4995524;28;20042;-56
2023/09/08 12:04:29;;;;;;;477.67;314.60;;;;;;;;;;4998658;28;20042;-54
2023/09/08 12:06:57;;;;;;;627.17;349.73;;;;;;;;;;5001287;28;20092;-55
2023/09/08 12:09:23;;;;;;;456.48;332.05;;;;;;;;;;4997523;28;20037;-54
2023/09/08 12:11:49;;;;;;;559.35;388.80;;;;;;;;;;4999927;28;20517;-52
2023/09/08 12:14:15;;;;;;;444.60;286.92;;;;;;;;;;4996421;28;20033;-54
2023/09/08 12:16:43;;;;;;;501.27;350.90;;;;;;;;;;5000204;28;20500;-53
2023/09/08 12:19:27;;;;;;;505.80;321.65;;;;;;;;;;4991143;28;20034;-54
2023/09/08 12:21:59;;;;;;;524.63;303.90;;;;;;;;;;4995551;28;20061;-55
2023/09/08 12:24:44;;;;;;;408.90;171.20;;;;;;;;;;4995917;28;20021;-53
2023/09/08 12:27:09;;;;;;;418.85;217.73;;;;;;;;;;4996007;28;21535;-53
2023/09/08 12:29:34;;;;;;;476.07;346.10;;;;;;;;;;4996971;28;20179;-56
2023/09/08 12:31:59;;;;;;;564.50;332.40;;;;;;;;;;4996832;28;20027;-56
2023/09/08 12:34:25;;;;;;;617.38;436.10;;;;;;;;;;5000308;28;20480;-54
2023/09/08 12:36:55;;;;;;;451.43;194.70;;;;;;;;;;4996201;28;20076;-53
2023/09/08 12:39:20;;;;;;;543.92;351.50;;;;;;;;;;4997126;28;20802;-55
2023/09/08 12:41:45;;;;;;;540.20;364.80;;;;;;;;;;4997987;28;20041;-55
2023/09/08 12:44:10;;;;;;;515.27;280.20;;;;;;;;;;4987031;28;20596;-55
2023/09/08 12:46:36;;;;;;;495.58;290.48;;;;;;;;;;4995490;28;20034;-53
2023/09/08 12:49:01;;;;;;;626.30;359.60;;;;;;;;;;4993378;28;20377;-54
2023/09/08 12:51:26;;;;;;;441.37;281.57;;;;;;;;;;4998514;28;20052;-53
2023/09/08 12:53:51;;;;;;;457.27;324.50;;;;;;;;;;4993882;28;20017;-53
2023/09/08 12:56:18;;;;;;;406.97;258.57;;;;;;;;;;4997169;28;20030;-56
2023/09/08 12:58:43;;;;;;;449.40;248.27;;;;;;;;;;4994221;28;20014;-55
2023/09/08 13:01:08;;;;;;;561.73;325.13;;;;;;;;;;4994467;28;20033;-54
2023/09/08 13:03:33;;;;;;;482.93;323.23;;;;;;;;;;4996419;28;20025;-54
2023/09/08 13:05:58;;;;;;;629.50;367.30;;;;;;;;;;4992912;28;20496;-55
2023/09/08 13:08:24;;;;;;;331.80;82.17;;;;;;;;;;4992552;28;20427;-53
2023/09/08 13:10:49;;;;;;;496.43;354.63;;;;;;;;;;4997849;28;20434;-56
2023/09/08 13:13:14;;;;;;;487.20;318.07;;;;;;;;;;4991663;28;20024;-55
2023/09/08 13:15:39;;;;;;;557.60;346.27;;;;;;;;;;4991451;28;20144;-55
2023/09/08 13:18:05;;;;;;;637.23;356.50;;;;;;;;;;5009910;28;20771;-55
2023/09/08 13:20:30;;;;;;;692.00;448.20;;;;;;;;;;4995045;28;20273;-55
2023/09/08 13:22:55;;;;;;;564.77;367.63;;;;;;;;;;4993878;28;20401;-56
2023/09/08 13:25:20;;;;;;;483.73;274.27;;;;;;;;;;4992796;28;20475;-53
2023/09/08 13:27:47;;;;;;;483.70;290.60;;;;;;;;;;4993657;28;20519;-55
2023/09/08 13:30:14;;;;;;;603.03;388.27;;;;;;;;;;4992931;28;21256;-56
2023/09/08 13:32:39;;;;;;;461.77;332.80;;;;;;;;;;4998011;28;20157;-55
2023/09/08 13:35:05;;;;;;;560.60;393.25;;;;;;;;;;4997168;28;20379;-54
2023/09/08 13:37:30;;;;;;;567.13;398.95;;;;;;;;;;4994608;28;20352;-57
2023/09/08 13:39:56;;;;;;;676.72;402.95;;;;;;;;;;4992569;28;20095;-54
2023/09/08 13:42:21;;;;;;;436.17;281.77;;;;;;;;;;4995170;28;20814;-56
2023/09/08 13:44:46;;;;;;;589.73;334.80;;;;;;;;;;4993216;28;20043;-55
2023/09/08 13:47:11;;;;;;;649.67;312.80;;;;;;;;;;4992959;28;20038;-55